createdAt,value
2022-11-26T00:02:24.054Z,37.33
2022-11-26T00:04:52.291Z,29.55
2022-11-26T00:07:25.947Z,27.65
2022-11-26T00:09:57.440Z,32.55
2022-11-26T00:12:27.910Z,33.38
2022-11-26T00:14:54.864Z,30.73
2022-11-26T00:17:21.606Z,31.48
2022-11-26T00:19:47.989Z,30.58
2022-11-26T00:22:29.225Z,26.20
2022-11-26T00:27:26.243Z,25.30
2022-11-26T00:29:52.822Z,31.88
2022-11-26T00:32:21.718Z,29.10
2022-11-26T00:34:48.286Z,26.92
2022-11-26T00:37:22.809Z,29.42
2022-11-26T00:39:50.076Z,34.40
2022-11-26T00:42:16.908Z,24.30
2022-11-26T00:44:43.215Z,26.13
2022-11-26T00:47:09.747Z,35.38
2022-11-26T00:49:36.288Z,27.70
2022-11-26T00:52:03.576Z,29.65
2022-11-26T00:54:29.963Z,29.55
2022-11-26T00:56:56.276Z,29.35
2022-11-26T00:59:23.260Z,30.60
2022-11-26T01:01:50.009Z,31.20
2022-11-26T01:04:16.401Z,27.08
2022-11-26T01:06:44.356Z,31.95
2022-11-26T01:09:17.265Z,29.00
2022-11-26T01:11:43.596Z,35.45
2022-11-26T01:14:16.198Z,29.27
2022-11-26T01:16:43.916Z,30.80
2022-11-26T01:19:12.926Z,32.35
2022-11-26T01:21:39.688Z,40.30
2022-11-26T01:24:06.583Z,30.77
2022-11-26T01:26:38.140Z,31.63
2022-11-26T01:29:05.073Z,30.13
2022-11-26T01:31:31.865Z,27.08
2022-11-26T01:33:58.349Z,36.47
2022-11-26T01:36:38.476Z,33.13
2022-11-26T01:39:10.737Z,31.95
2022-11-26T01:41:45.492Z,27.83
2022-11-26T01:44:33.544Z,30.15
2022-11-26T01:47:01.066Z,23.65
2022-11-26T01:49:30.765Z,32.65
2022-11-26T01:52:04.949Z,34.53
2022-11-26T01:54:32.594Z,27.95
2022-11-26T01:57:23.527Z,27.83
2022-11-26T02:09:01.231Z,30.95
2022-11-26T02:11:27.745Z,25.27
2022-11-26T02:14:04.545Z,30.17
2022-11-26T02:16:52.908Z,28.13
2022-11-26T02:19:43.172Z,35.90
2022-11-26T02:22:50.241Z,29.98
2022-11-26T02:25:35.342Z,33.35
2022-11-26T02:28:38.214Z,39.35
2022-11-26T02:31:17.314Z,26.23
2022-11-26T02:33:55.762Z,27.67
2022-11-26T02:36:32.116Z,24.02
2022-11-26T02:39:20.603Z,30.48
2022-11-26T02:41:50.575Z,33.17
2022-11-26T02:44:22.402Z,25.85
2022-11-26T02:46:52.365Z,32.83
2022-11-26T02:49:21.526Z,31.67
2022-11-26T02:51:52.479Z,32.30
2022-11-26T02:54:21.183Z,33.83
2022-11-26T02:56:49.075Z,28.48
2022-11-26T02:59:16.128Z,29.60
2022-11-26T03:01:48.420Z,27.17
2022-11-26T03:04:25.334Z,30.80
2022-11-26T03:06:53.125Z,39.63
2022-11-26T03:09:22.701Z,31.23
2022-11-26T03:11:49.603Z,29.50
2022-11-26T03:14:15.999Z,29.40
2022-11-26T03:16:42.347Z,21.52
2022-11-26T03:19:08.685Z,29.92
2022-11-26T03:21:35.110Z,28.42
2022-11-26T03:24:01.426Z,29.80
2022-11-26T03:26:27.737Z,23.23
2022-11-26T03:28:54.081Z,28.63
2022-11-26T03:31:20.484Z,29.05
2022-11-26T03:33:46.856Z,30.52
2022-11-26T03:36:13.151Z,37.20
2022-11-26T03:38:39.459Z,34.72
2022-11-26T03:41:05.784Z,28.77
2022-11-26T03:43:32.117Z,35.90
2022-11-26T03:45:58.461Z,33.38
2022-11-26T03:48:24.825Z,31.23
2022-11-26T03:50:51.170Z,24.10
2022-11-26T03:53:17.476Z,31.63
2022-11-26T03:55:44.578Z,29.75
2022-11-26T03:58:10.907Z,36.72
2022-11-26T04:00:37.245Z,29.17
2022-11-26T04:03:03.625Z,33.78
2022-11-26T04:05:30.039Z,35.63
2022-11-26T04:07:56.391Z,29.40
2022-11-26T04:10:22.707Z,33.30
2022-11-26T04:12:49.083Z,36.97
2022-11-26T04:15:15.429Z,30.55
2022-11-26T04:17:41.753Z,36.42
2022-11-26T04:20:08.675Z,30.98
2022-11-26T04:22:35.447Z,33.78
2022-11-26T04:25:01.772Z,35.50
2022-11-26T04:27:28.116Z,35.92
2022-11-26T04:29:54.572Z,33.30
2022-11-26T04:32:20.857Z,29.90
2022-11-26T04:34:47.169Z,36.03
2022-11-26T04:37:13.461Z,41.05
2022-11-26T04:39:39.862Z,35.60
2022-11-26T04:42:06.181Z,37.15
2022-11-26T04:44:32.510Z,33.22
2022-11-26T04:46:58.890Z,32.33
2022-11-26T04:49:25.278Z,41.08
2022-11-26T04:51:51.610Z,36.65
2022-11-26T04:54:17.918Z,35.50
2022-11-26T04:56:44.275Z,34.60
2022-11-26T04:59:10.748Z,38.47
2022-11-26T05:01:37.153Z,39.28
2022-11-26T05:04:03.920Z,37.92
2022-11-26T05:06:30.264Z,33.35
2022-11-26T05:08:56.601Z,39.28
2022-11-26T05:11:22.964Z,39.78
2022-11-26T05:13:49.308Z,38.38
2022-11-26T05:16:15.674Z,39.67
2022-11-26T05:18:42.007Z,39.30
2022-11-26T05:21:08.373Z,38.92
2022-11-26T05:23:34.709Z,35.60
2022-11-26T05:26:01.001Z,45.55
2022-11-26T05:28:27.360Z,41.92
2022-11-26T05:31:01.823Z,35.15
2022-11-26T05:33:28.663Z,36.88
2022-11-26T05:35:55.198Z,35.42
2022-11-26T05:38:21.773Z,41.55
2022-11-26T05:40:48.172Z,41.90
2022-11-26T05:43:14.594Z,38.88
2022-11-26T05:45:40.938Z,44.45
2022-11-26T05:48:07.545Z,41.35
2022-11-26T05:50:34.314Z,33.63
2022-11-26T05:53:00.749Z,31.58
2022-11-26T05:55:27.161Z,37.25
2022-11-26T05:57:53.477Z,35.45
2022-11-26T06:00:19.985Z,40.10
2022-11-26T06:02:46.429Z,44.22
2022-11-26T06:05:12.825Z,35.20
2022-11-26T06:07:43.243Z,34.00
2022-11-26T06:10:11.725Z,32.70
2022-11-26T06:12:38.028Z,39.63
2022-11-26T06:15:04.748Z,39.15
2022-11-26T06:17:31.119Z,36.42
2022-11-26T06:19:57.440Z,39.00
2022-11-26T06:22:23.756Z,42.95
2022-11-26T06:24:50.056Z,53.33
2022-11-26T06:27:16.367Z,55.60
2022-11-26T06:29:42.700Z,49.90
2022-11-26T06:32:09.017Z,57.20
2022-11-26T06:34:35.604Z,53.83
2022-11-26T06:37:02.456Z,57.03
2022-11-26T06:39:28.769Z,57.45
2022-11-26T06:41:55.143Z,55.58
2022-11-26T06:44:21.532Z,55.47
2022-11-26T06:46:47.828Z,51.47
2022-11-26T06:49:14.173Z,67.07
2022-11-26T06:51:40.521Z,58.20
2022-11-26T06:54:07.694Z,66.25
2022-11-26T06:56:35.573Z,60.58
2022-11-26T06:59:02.536Z,66.70
2022-11-26T07:01:28.894Z,66.90
2022-11-26T07:03:55.450Z,61.83
2022-11-26T07:06:27.713Z,46.47
2022-11-26T07:08:56.067Z,70.15
2022-11-26T07:11:24.064Z,61.88
2022-11-26T07:13:50.804Z,62.42
2022-11-26T07:16:17.659Z,62.47
2022-11-26T07:18:49.055Z,57.03
2022-11-26T07:21:15.406Z,55.22
2022-11-26T07:23:41.811Z,57.75
2022-11-26T07:26:09.178Z,52.28
2022-11-26T07:28:38.117Z,56.30
2022-11-26T07:31:16.100Z,60.05
2022-11-26T07:33:43.696Z,69.15
2022-11-26T07:36:15.891Z,48.38
2022-11-26T07:38:42.193Z,63.28
2022-11-26T07:41:11.449Z,43.80
2022-11-26T07:43:39.141Z,51.92
2022-11-26T07:46:07.059Z,50.78
2022-11-26T07:48:34.168Z,63.20
2022-11-26T07:51:02.026Z,46.75
2022-11-26T07:53:29.950Z,54.40
2022-11-26T07:55:56.354Z,53.85
2022-11-26T07:58:22.914Z,54.78
2022-11-26T08:00:54.306Z,49.58
2022-11-26T08:03:21.038Z,44.38
2022-11-26T08:05:47.390Z,55.30
2022-11-26T08:08:13.759Z,61.05
2022-11-26T08:10:40.125Z,63.40
2022-11-26T08:13:08.022Z,65.88
2022-11-26T08:15:35.400Z,47.85
2022-11-26T08:18:01.696Z,56.75
2022-11-26T08:20:29.185Z,44.10
2022-11-26T08:22:55.912Z,56.58
2022-11-26T08:25:22.263Z,49.63
2022-11-26T08:27:48.944Z,52.88
2022-11-26T08:30:15.394Z,49.25
2022-11-26T08:32:41.720Z,48.55
2022-11-26T08:35:08.337Z,54.03
2022-11-26T08:37:34.637Z,42.72
2022-11-26T08:40:01.001Z,51.83
2022-11-26T08:42:27.313Z,46.30
2022-11-26T08:44:54.204Z,44.70
2022-11-26T08:47:20.935Z,42.58
2022-11-26T08:49:49.467Z,43.53
2022-11-26T08:52:15.833Z,38.55
2022-11-26T08:54:44.996Z,46.22
2022-11-26T08:57:11.735Z,40.33
2022-11-26T08:59:38.071Z,32.80
2022-11-26T09:02:04.945Z,38.92
2022-11-26T09:04:31.887Z,41.92
2022-11-26T09:06:58.185Z,39.05
2022-11-26T09:09:24.492Z,33.63
2022-11-26T09:11:57.897Z,33.50
2022-11-26T09:14:31.250Z,32.72
2022-11-26T09:16:58.400Z,35.42
2022-11-26T09:19:25.333Z,33.42
2022-11-26T09:21:51.716Z,30.73
2022-11-26T09:24:18.265Z,26.95
2022-11-26T09:26:44.851Z,33.20
2022-11-26T09:29:16.961Z,30.80
2022-11-26T09:32:07.369Z,28.85
2022-11-26T09:34:31.342Z,29.20
2022-11-26T09:36:57.661Z,32.38
2022-11-26T09:39:23.951Z,27.35
2022-11-26T09:41:59.235Z,28.17
2022-11-26T09:44:55.519Z,23.02
2022-11-26T09:47:35.389Z,30.10
2022-11-26T09:50:10.861Z,32.67
2022-11-26T09:52:47.928Z,28.92
2022-11-26T09:55:19.806Z,27.67
2022-11-26T09:58:07.342Z,28.20
2022-11-26T10:00:39.225Z,22.85
2022-11-26T10:03:13.726Z,24.05
2022-11-26T10:05:55.183Z,30.63
2022-11-26T10:08:35.994Z,34.42
2022-11-26T10:11:07.983Z,31.00
2022-11-26T10:14:09.831Z,25.70
2022-11-26T10:17:05.267Z,21.67
2022-11-26T10:20:01.295Z,23.90
2022-11-26T10:22:32.355Z,27.23
2022-11-26T10:27:31.572Z,24.50
2022-11-26T10:30:01.422Z,22.33
2022-11-26T10:32:35.000Z,26.92
2022-11-26T10:35:01.741Z,23.92
2022-11-26T10:37:29.383Z,22.08
2022-11-26T10:40:04.377Z,21.08
2022-11-26T10:42:58.830Z,18.20
2022-11-26T10:45:36.269Z,25.10
2022-11-26T10:48:30.007Z,26.80
2022-11-26T10:50:59.374Z,20.70
2022-11-26T10:53:27.443Z,22.80
2022-11-26T10:55:59.662Z,27.33
2022-11-26T10:58:30.745Z,19.83
2022-11-26T11:03:59.824Z,26.35
2022-11-26T11:06:27.939Z,27.13
2022-11-26T11:08:54.960Z,27.08
2022-11-26T11:11:24.188Z,29.90
2022-11-26T11:13:51.239Z,17.70
2022-11-26T11:16:39.317Z,21.50
2022-11-26T11:19:21.313Z,29.38
2022-11-26T11:21:48.729Z,22.42
2022-11-26T11:24:22.264Z,20.75
2022-11-26T11:26:54.593Z,28.33
2022-11-26T11:29:29.932Z,25.92
2022-11-26T11:31:57.518Z,20.15
2022-11-26T11:34:42.996Z,23.70
2022-11-26T11:37:23.243Z,17.75
2022-11-26T11:40:05.278Z,21.80
2022-11-26T11:42:32.256Z,18.80
2022-11-26T11:45:00.926Z,20.85
2022-11-26T11:47:37.353Z,26.88
2022-11-26T11:50:30.435Z,26.60
2022-11-26T11:53:22.212Z,22.10
2022-11-26T11:56:10.028Z,24.27
2022-11-26T11:59:01.344Z,19.77
2022-11-26T12:04:20.232Z,28.77
2022-11-26T12:06:58.610Z,18.42
2022-11-26T12:09:40.574Z,22.65
2022-11-26T12:12:29.148Z,24.30
2022-11-26T12:15:05.498Z,20.75
2022-11-26T12:17:56.922Z,22.00
2022-11-26T12:20:30.066Z,14.05
2022-11-26T12:23:24.449Z,19.17
2022-11-26T12:26:01.818Z,18.48
2022-11-26T12:28:33.241Z,22.83
2022-11-26T12:31:04.044Z,22.25
2022-11-26T12:33:41.336Z,17.10
2022-11-26T12:36:18.611Z,18.38
2022-11-26T12:38:59.103Z,26.75
2022-11-26T12:41:34.658Z,23.17
2022-11-26T12:44:13.149Z,20.52
2022-11-26T12:46:57.912Z,22.45
2022-11-26T12:49:38.418Z,16.75
2022-11-26T12:52:28.486Z,19.63
2022-11-26T12:55:13.198Z,17.00
2022-11-26T12:58:11.106Z,18.35
2022-11-26T13:00:37.775Z,16.08
2022-11-26T13:03:14.727Z,16.73
2022-11-26T13:05:51.251Z,17.60
2022-11-26T13:08:24.116Z,14.05
2022-11-26T13:11:05.920Z,17.52
2022-11-26T13:13:58.310Z,15.68
2022-11-26T13:16:58.959Z,16.23
2022-11-26T13:19:41.118Z,18.98
2022-11-26T13:22:16.800Z,16.98
2022-11-26T13:25:01.367Z,17.10
2022-11-26T13:27:58.845Z,16.25
2022-11-26T13:30:31.214Z,17.42
2022-11-26T13:33:25.122Z,14.85
2022-11-26T13:36:14.039Z,12.13
2022-11-26T13:38:43.228Z,14.63
2022-11-26T13:41:36.341Z,18.10
2022-11-26T13:44:35.126Z,14.20
2022-11-26T13:47:11.443Z,15.18
2022-11-26T13:50:28.447Z,14.55
2022-11-26T13:53:02.961Z,11.93
2022-11-26T13:55:44.488Z,12.65
2022-11-26T13:58:26.336Z,19.00
2022-11-26T14:00:52.853Z,17.58
2022-11-26T14:03:48.614Z,13.38
2022-11-26T14:06:15.091Z,21.10
2022-11-26T14:08:44.821Z,14.77
2022-11-26T14:11:12.580Z,13.90
2022-11-26T14:13:38.993Z,15.88
2022-11-26T14:16:09.860Z,16.73
2022-11-26T14:18:48.553Z,11.20
2022-11-26T14:21:19.742Z,15.55
2022-11-26T14:26:27.007Z,20.13
2022-11-26T14:29:13.249Z,17.80
2022-11-26T14:31:49.776Z,15.80
2022-11-26T14:34:38.447Z,15.88
2022-11-26T14:37:16.440Z,18.55
2022-11-26T14:39:43.356Z,18.35
2022-11-26T14:42:17.351Z,17.30
2022-11-26T14:44:44.464Z,13.80
2022-11-26T14:47:19.792Z,17.20
2022-11-26T14:49:55.644Z,19.83
2022-11-26T14:52:26.377Z,16.40
2022-11-26T14:54:55.915Z,11.32
2022-11-26T14:57:38.577Z,14.60
2022-11-26T15:00:08.643Z,13.23
2022-11-26T15:02:40.390Z,16.70
2022-11-26T15:05:14.091Z,18.10
2022-11-26T15:07:40.469Z,10.88
2022-11-26T15:10:18.187Z,17.48
2022-11-26T15:12:47.135Z,18.05
2022-11-26T15:15:17.152Z,19.52
2022-11-26T15:17:46.486Z,18.85
2022-11-26T15:20:16.560Z,18.02
2022-11-26T15:22:52.684Z,19.48
2022-11-26T15:25:27.648Z,19.90
2022-11-26T15:28:16.121Z,13.95
2022-11-26T15:30:53.960Z,15.02
2022-11-26T15:33:20.860Z,18.48
2022-11-26T15:35:50.501Z,15.05
2022-11-26T15:38:20.237Z,16.40
2022-11-26T15:40:51.802Z,15.30
2022-11-26T15:43:23.779Z,18.80
2022-11-26T15:45:53.558Z,10.57
2022-11-26T15:48:50.962Z,11.35
2022-11-26T15:51:36.047Z,16.48
2022-11-26T15:54:06.099Z,17.85
2022-11-26T15:56:37.593Z,17.73
2022-11-26T15:59:13.597Z,12.82
2022-11-26T16:01:44.308Z,20.48
2022-11-26T16:04:33.191Z,18.10
2022-11-26T16:07:08.724Z,15.98
2022-11-26T16:09:35.209Z,17.73
2022-11-26T16:12:01.666Z,17.92
2022-11-26T16:14:29.914Z,15.40
2022-11-26T16:17:00.744Z,19.80
2022-11-26T16:19:31.238Z,14.23
2022-11-26T16:22:02.807Z,14.43
2022-11-26T16:24:39.956Z,15.98
2022-11-26T16:27:25.970Z,11.02
2022-11-26T16:29:52.327Z,13.85
2022-11-26T16:32:19.384Z,22.77
2022-11-26T16:34:45.812Z,14.25
2022-11-26T16:37:26.494Z,17.30
2022-11-26T16:40:00.438Z,12.50
2022-11-26T16:42:26.961Z,12.00
2022-11-26T16:44:53.467Z,13.45
2022-11-26T16:47:27.643Z,26.10
2022-11-26T16:49:54.378Z,19.05
2022-11-26T16:52:21.563Z,15.30
2022-11-26T16:54:48.615Z,16.60
2022-11-26T16:57:24.239Z,16.90
2022-11-26T17:00:03.666Z,18.58
2022-11-26T17:02:30.880Z,19.17
2022-11-26T17:04:57.281Z,14.35
2022-11-26T17:07:28.470Z,13.95
2022-11-26T17:09:55.380Z,16.52
2022-11-26T17:12:24.112Z,18.42
2022-11-26T17:17:25.509Z,14.05
2022-11-26T17:19:52.061Z,14.23
2022-11-26T17:22:18.365Z,18.30
2022-11-26T17:24:44.694Z,17.98
2022-11-26T17:27:16.706Z,21.80
2022-11-26T17:29:44.405Z,12.95
2022-11-26T17:32:17.076Z,14.77
2022-11-26T17:34:44.621Z,18.30
2022-11-26T17:37:19.686Z,15.18
2022-11-26T17:39:46.017Z,14.25
2022-11-26T17:42:12.324Z,15.55
2022-11-26T17:44:38.621Z,11.95
2022-11-26T17:47:17.740Z,11.70
2022-11-26T17:49:45.694Z,13.77
2022-11-26T17:52:12.555Z,10.60
2022-11-26T17:54:39.310Z,13.15
2022-11-26T17:57:06.447Z,9.52
2022-11-26T17:59:32.862Z,17.50
2022-11-26T18:01:59.605Z,23.25
2022-11-26T18:04:25.979Z,16.98
2022-11-26T18:07:12.000Z,18.10
2022-11-26T18:09:39.164Z,12.75
2022-11-26T18:12:07.200Z,15.15
2022-11-26T18:14:35.519Z,13.88
2022-11-26T18:17:04.581Z,10.40
2022-11-26T18:19:30.982Z,15.27
2022-11-26T18:21:57.402Z,15.35
2022-11-26T18:24:23.727Z,13.43
2022-11-26T18:26:52.387Z,13.93
2022-11-26T18:29:18.693Z,14.45
2022-11-26T18:31:44.980Z,17.50
2022-11-26T18:34:11.330Z,12.80
2022-11-26T18:36:37.620Z,17.25
2022-11-26T18:39:04.812Z,14.60
2022-11-26T18:41:31.580Z,14.27
2022-11-26T18:43:58.108Z,11.68
2022-11-26T18:46:24.500Z,17.40
2022-11-26T18:48:51.261Z,12.88
2022-11-26T18:51:18.261Z,16.13
2022-11-26T18:53:44.926Z,15.35
2022-11-26T18:56:14.416Z,14.80
2022-11-26T18:58:41.179Z,17.80
2022-11-26T19:01:16.992Z,20.52
2022-11-26T19:03:44.433Z,15.70
2022-11-26T19:06:15.065Z,10.15
2022-11-26T19:08:41.923Z,11.43
2022-11-26T19:11:13.655Z,14.57
2022-11-26T19:13:40.036Z,12.15
2022-11-26T19:16:16.317Z,18.25
2022-11-26T19:18:44.333Z,14.25
2022-11-26T19:21:25.576Z,14.32
2022-11-26T19:26:19.414Z,19.73
2022-11-26T19:28:45.962Z,9.25
2022-11-26T19:31:14.949Z,10.35
2022-11-26T19:33:41.502Z,15.73
2022-11-26T19:36:13.058Z,13.18
2022-11-26T19:38:39.574Z,16.15
2022-11-26T19:41:06.703Z,12.23
2022-11-26T19:43:35.842Z,13.48
2022-11-26T19:46:07.266Z,15.60
2022-11-26T19:48:37.226Z,10.30
2022-11-26T19:51:04.955Z,10.95
2022-11-26T19:53:32.039Z,10.38
2022-11-26T19:56:00.954Z,11.30
2022-11-26T19:58:29.045Z,14.73
2022-11-26T20:00:55.643Z,15.05
2022-11-26T20:03:22.757Z,12.45
2022-11-26T20:05:49.556Z,13.82
2022-11-26T20:08:16.640Z,11.77
2022-11-26T20:10:49.574Z,16.65
2022-11-26T20:13:16.312Z,15.15
2022-11-26T20:15:47.357Z,8.90
2022-11-26T20:20:41.760Z,12.80
2022-11-26T20:23:08.096Z,20.13
2022-11-26T20:25:36.284Z,11.73
2022-11-26T20:28:04.252Z,19.17
2022-11-26T20:30:31.144Z,11.27
2022-11-26T20:32:57.571Z,16.50
2022-11-26T20:35:23.929Z,13.05
2022-11-26T20:37:50.917Z,12.07
2022-11-26T20:40:17.812Z,10.05
2022-11-26T20:42:45.989Z,13.05
2022-11-26T20:45:13.811Z,13.32
2022-11-26T20:47:41.238Z,13.27
2022-11-26T20:50:10.632Z,15.63
2022-11-26T20:52:36.951Z,13.40
2022-11-26T20:55:04.366Z,16.02
2022-11-26T20:57:30.708Z,17.65
2022-11-26T20:59:57.039Z,16.90
2022-11-26T21:02:23.446Z,17.83
2022-11-26T21:04:49.906Z,12.90
2022-11-26T21:07:16.228Z,13.48
2022-11-26T21:09:42.970Z,12.57
2022-11-26T21:12:09.283Z,10.00
2022-11-26T21:14:35.609Z,13.50
2022-11-26T21:17:02.125Z,9.88
2022-11-26T21:19:28.793Z,13.02
2022-11-26T21:21:55.132Z,12.18
2022-11-26T21:24:21.806Z,8.52
2022-11-26T21:26:48.105Z,10.80
2022-11-26T21:29:15.167Z,9.05
2022-11-26T21:31:41.495Z,12.27
2022-11-26T21:34:08.167Z,15.50
2022-11-26T21:36:36.496Z,12.30
2022-11-26T21:39:03.796Z,9.18
2022-11-26T21:41:33.231Z,14.35
2022-11-26T21:44:03.717Z,12.57
2022-11-26T21:46:36.552Z,13.38
2022-11-26T21:49:04.097Z,13.73
2022-11-26T21:51:30.601Z,16.83
2022-11-26T21:53:58.133Z,18.45
2022-11-26T21:56:29.956Z,12.15
2022-11-26T21:58:58.341Z,11.85
2022-11-26T22:01:27.754Z,12.85
2022-11-26T22:03:56.650Z,13.25
2022-11-26T22:06:24.110Z,15.27
2022-11-26T22:08:51.493Z,13.18
2022-11-26T22:11:22.177Z,13.00
2022-11-26T22:13:48.859Z,11.43
2022-11-26T22:16:17.606Z,16.13
2022-11-26T22:18:45.279Z,12.73
2022-11-26T22:21:14.734Z,17.85
2022-11-26T22:23:41.681Z,11.40
2022-11-26T22:26:08.600Z,11.00
2022-11-26T22:28:35.067Z,10.10
2022-11-26T22:31:15.136Z,13.55
2022-11-26T22:33:41.825Z,12.75
2022-11-26T22:36:08.770Z,14.32
2022-11-26T22:38:36.934Z,12.13
2022-11-26T22:41:05.100Z,13.18
2022-11-26T22:43:31.693Z,11.45
2022-11-26T22:45:58.716Z,11.75
2022-11-26T22:48:25.089Z,15.60
2022-11-26T22:50:53.321Z,14.57
2022-11-26T22:53:20.690Z,10.32
2022-11-26T22:55:58.005Z,9.85
2022-11-26T22:58:26.911Z,13.02
2022-11-26T23:01:06.144Z,17.52
2022-11-26T23:03:35.759Z,12.02
2022-11-26T23:06:10.392Z,13.75
2022-11-26T23:08:38.871Z,6.00
2022-11-26T23:11:11.142Z,12.98
2022-11-26T23:13:40.537Z,9.25
2022-11-26T23:16:08.450Z,15.73
2022-11-26T23:18:36.236Z,10.48
2022-11-26T23:21:07.151Z,12.55
2022-11-26T23:23:34.092Z,8.98
2022-11-26T23:26:05.140Z,10.90
2022-11-26T23:31:03.468Z,16.27
2022-11-26T23:33:29.812Z,13.50
2022-11-26T23:35:56.561Z,13.38
2022-11-26T23:38:23.553Z,18.45
2022-11-26T23:40:57.957Z,14.88
2022-11-26T23:43:25.281Z,11.30
2022-11-26T23:46:19.557Z,8.35
2022-11-26T23:48:46.754Z,10.88
2022-11-26T23:51:25.269Z,7.72
2022-11-26T23:53:53.031Z,12.15
2022-11-26T23:56:25.138Z,13.75
2022-11-26T23:58:53.279Z,13.07
